createdAt,value
2023-05-14T00:01:32.431Z,7.70
2023-05-14T00:03:59.441Z,7.60
2023-05-14T00:06:26.314Z,7.40
2023-05-14T00:08:53.249Z,7.90
2023-05-14T00:11:20.209Z,8.10
2023-05-14T00:13:47.111Z,8.30
2023-05-14T00:16:13.999Z,9.00
2023-05-14T00:18:40.884Z,8.70
2023-05-14T00:21:07.775Z,9.90
2023-05-14T00:23:34.661Z,9.30
2023-05-14T00:26:01.496Z,9.20
2023-05-14T00:28:28.412Z,8.50
2023-05-14T00:30:57.358Z,8.40
2023-05-14T00:33:24.331Z,6.90
2023-05-14T00:35:51.794Z,7.20
2023-05-14T00:38:19.655Z,7.10
2023-05-14T00:40:51.321Z,7.20
2023-05-14T00:43:19.296Z,9.70
2023-05-14T00:45:46.324Z,7.00
2023-05-14T00:48:13.345Z,6.30
2023-05-14T00:50:40.237Z,6.40
2023-05-14T00:53:10.415Z,6.10
2023-05-14T00:55:38.288Z,6.30
2023-05-14T00:58:05.590Z,6.90
2023-05-14T01:00:32.483Z,6.10
2023-05-14T01:03:01.614Z,6.40
2023-05-14T01:05:29.875Z,6.00
2023-05-14T01:08:23.093Z,5.80
2023-05-14T01:10:51.935Z,6.30
2023-05-14T01:13:21.996Z,5.50
2023-05-14T01:15:48.804Z,6.60
2023-05-14T01:18:18.340Z,6.30
2023-05-14T01:20:45.567Z,6.20
2023-05-14T01:23:12.474Z,6.40
2023-05-14T01:25:39.381Z,6.90
2023-05-14T01:28:19.388Z,6.30
2023-05-14T01:30:54.060Z,6.90
2023-05-14T01:33:21.026Z,6.30
2023-05-14T01:35:47.983Z,6.50
2023-05-14T01:38:15.447Z,6.10
2023-05-14T01:40:42.245Z,6.80
2023-05-14T01:43:09.310Z,6.00
2023-05-14T01:45:36.525Z,6.40
2023-05-14T01:48:04.346Z,6.80
2023-05-14T01:50:31.244Z,6.20
2023-05-14T01:52:58.215Z,6.20
2023-05-14T01:55:25.134Z,6.10
2023-05-14T01:57:52.626Z,6.70
2023-05-14T02:00:19.907Z,6.60
2023-05-14T02:02:46.807Z,6.20
2023-05-14T02:05:14.054Z,6.60
2023-05-14T02:07:41.182Z,7.10
2023-05-14T02:10:09.315Z,6.30
2023-05-14T02:12:36.182Z,7.00
2023-05-14T02:15:03.954Z,7.10
2023-05-14T02:17:30.837Z,5.70
2023-05-14T02:19:57.841Z,7.60
2023-05-14T02:22:25.533Z,7.10
2023-05-14T02:24:52.787Z,7.60
2023-05-14T02:27:19.782Z,6.80
2023-05-14T02:29:46.663Z,6.70
2023-05-14T02:32:14.097Z,6.50
2023-05-14T02:34:41.018Z,7.00
2023-05-14T02:37:07.956Z,7.30
2023-05-14T02:39:34.815Z,7.30
2023-05-14T02:42:01.736Z,7.50
2023-05-14T02:44:28.695Z,7.00
2023-05-14T02:46:55.612Z,7.00
2023-05-14T02:49:22.501Z,7.80
2023-05-14T02:51:49.448Z,7.80
2023-05-14T02:54:16.899Z,7.80
2023-05-14T02:56:43.818Z,6.90
2023-05-14T02:59:10.955Z,7.30
2023-05-14T03:01:38.282Z,7.60
2023-05-14T03:04:05.754Z,7.60
2023-05-14T03:06:32.719Z,8.00
2023-05-14T03:08:59.565Z,7.20
2023-05-14T03:11:26.453Z,7.80
2023-05-14T03:13:53.356Z,8.10
2023-05-14T03:16:20.267Z,7.50
2023-05-14T03:18:47.281Z,8.10
2023-05-14T03:21:14.240Z,7.50
2023-05-14T03:23:41.154Z,8.20
2023-05-14T03:26:08.496Z,9.10
2023-05-14T03:28:35.401Z,8.00
2023-05-14T03:31:02.310Z,8.20
2023-05-14T03:33:31.275Z,7.10
2023-05-14T03:35:58.146Z,7.90
2023-05-14T03:38:24.992Z,8.50
2023-05-14T03:40:51.923Z,8.30
2023-05-14T03:43:18.883Z,10.40
2023-05-14T03:45:46.236Z,8.70
2023-05-14T03:48:13.246Z,8.20
2023-05-14T03:50:40.252Z,8.10
2023-05-14T03:53:07.067Z,8.30
2023-05-14T03:55:33.963Z,8.40
2023-05-14T03:58:01.245Z,7.50
2023-05-14T04:00:28.301Z,8.40
2023-05-14T04:02:55.352Z,7.80
2023-05-14T04:05:23.238Z,6.90
2023-05-14T04:07:50.183Z,7.30
2023-05-14T04:10:17.253Z,7.50
2023-05-14T04:12:44.204Z,7.90
2023-05-14T04:15:11.596Z,8.40
2023-05-14T04:17:38.495Z,8.10
2023-05-14T04:20:05.833Z,7.90
2023-05-14T04:22:33.811Z,7.00
2023-05-14T04:25:00.686Z,7.40
2023-05-14T04:27:28.425Z,7.40
2023-05-14T04:29:55.276Z,8.20
2023-05-14T04:32:22.802Z,9.50
2023-05-14T04:34:49.809Z,8.80
2023-05-14T04:37:16.610Z,8.50
2023-05-14T04:39:43.815Z,8.60
2023-05-14T04:42:11.070Z,8.60
2023-05-14T04:44:38.003Z,7.80
2023-05-14T04:47:05.080Z,7.70
2023-05-14T04:49:32.276Z,7.20
2023-05-14T04:51:59.369Z,7.30
2023-05-14T04:54:26.602Z,7.70
2023-05-14T04:56:55.249Z,8.20
2023-05-14T04:59:22.354Z,7.70
2023-05-14T05:01:49.294Z,8.20
2023-05-14T05:04:16.495Z,7.40
2023-05-14T05:06:44.000Z,6.40
2023-05-14T05:09:10.933Z,6.20
2023-05-14T05:11:38.986Z,6.20
2023-05-14T05:14:06.013Z,6.70
2023-05-14T05:16:32.974Z,6.20
2023-05-14T05:19:00.152Z,5.30
2023-05-14T05:21:27.126Z,4.60
2023-05-14T05:23:54.080Z,4.90
2023-05-14T05:26:22.596Z,4.60
2023-05-14T05:28:49.452Z,4.50
2023-05-14T05:31:19.632Z,4.70
2023-05-14T05:33:47.399Z,4.70
2023-05-14T05:36:14.242Z,4.00
2023-05-14T05:38:41.095Z,3.90
2023-05-14T05:41:07.990Z,3.80
2023-05-14T05:43:34.835Z,4.10
2023-05-14T05:46:01.884Z,4.00
2023-05-14T05:48:28.820Z,3.70
2023-05-14T05:50:55.652Z,3.70
2023-05-14T05:53:22.509Z,4.00
2023-05-14T05:55:51.778Z,4.00
2023-05-14T05:58:19.213Z,4.40
2023-05-14T06:00:46.994Z,3.90
2023-05-14T06:03:14.016Z,3.90
2023-05-14T06:05:41.014Z,3.80
2023-05-14T06:08:07.960Z,4.40
2023-05-14T06:10:35.213Z,4.40
2023-05-14T06:13:02.179Z,4.50
2023-05-14T06:15:29.107Z,4.00
2023-05-14T06:17:56.076Z,4.10
2023-05-14T06:20:23.047Z,4.60
2023-05-14T06:22:50.149Z,4.40
2023-05-14T06:25:17.041Z,4.80
2023-05-14T06:27:44.113Z,5.30
2023-05-14T06:30:11.444Z,4.70
2023-05-14T06:32:38.387Z,4.70
2023-05-14T06:35:05.486Z,4.50
2023-05-14T06:37:32.356Z,4.70
2023-05-14T06:39:59.371Z,4.30
2023-05-14T06:42:26.630Z,4.40
2023-05-14T06:44:55.132Z,4.60
2023-05-14T06:47:22.400Z,4.70
2023-05-14T06:49:49.349Z,4.40
2023-05-14T06:52:16.224Z,4.60
2023-05-14T06:54:43.101Z,4.50
2023-05-14T06:57:09.954Z,4.40
2023-05-14T06:59:36.817Z,4.10
2023-05-14T07:02:04.340Z,4.20
2023-05-14T07:04:32.172Z,4.10
2023-05-14T07:07:00.168Z,4.20
2023-05-14T07:09:27.366Z,3.80
2023-05-14T07:11:54.482Z,3.60
2023-05-14T07:14:21.593Z,3.80
2023-05-14T07:16:48.812Z,3.30
2023-05-14T07:19:15.910Z,3.60
2023-05-14T07:21:42.858Z,3.40
2023-05-14T07:24:10.377Z,3.80
2023-05-14T07:26:37.895Z,3.30
2023-05-14T07:29:05.757Z,3.60
2023-05-14T07:31:33.984Z,3.10
2023-05-14T07:34:01.376Z,2.90
2023-05-14T07:36:28.998Z,3.10
2023-05-14T07:38:56.049Z,3.20
2023-05-14T07:41:23.081Z,3.10
2023-05-14T07:43:50.002Z,3.60
2023-05-14T07:46:17.113Z,3.40
2023-05-14T07:48:43.993Z,2.90
2023-05-14T07:51:12.048Z,3.00
2023-05-14T07:53:39.003Z,2.80
2023-05-14T07:56:06.465Z,2.80
2023-05-14T07:58:35.144Z,5.40
2023-05-14T08:01:04.288Z,3.20
2023-05-14T08:03:31.146Z,3.00
2023-05-14T08:05:58.113Z,2.50
2023-05-14T08:08:25.004Z,2.70
2023-05-14T08:10:51.895Z,2.90
2023-05-14T08:13:18.779Z,2.60
2023-05-14T08:15:45.823Z,2.20
2023-05-14T08:18:12.732Z,2.90
2023-05-14T08:20:39.736Z,2.80
2023-05-14T08:23:07.591Z,2.70
2023-05-14T08:25:34.443Z,2.40
2023-05-14T08:28:01.943Z,2.50
2023-05-14T08:30:28.947Z,3.30
2023-05-14T08:32:55.940Z,2.40
2023-05-14T08:35:22.898Z,2.60
2023-05-14T08:37:50.422Z,2.80
2023-05-14T08:40:17.366Z,2.70
2023-05-14T08:42:45.287Z,2.40
2023-05-14T08:45:15.160Z,2.60
2023-05-14T08:47:41.960Z,2.70
2023-05-14T08:50:09.106Z,2.50
2023-05-14T08:52:36.377Z,2.20
2023-05-14T08:55:04.231Z,2.30
2023-05-14T08:57:32.194Z,2.80
2023-05-14T08:59:59.128Z,2.60
2023-05-14T09:02:29.901Z,2.40
2023-05-14T09:05:00.359Z,2.40
2023-05-14T09:07:27.329Z,2.40
2023-05-14T09:09:54.271Z,2.80
2023-05-14T09:12:21.298Z,2.40
2023-05-14T09:14:48.524Z,2.20
2023-05-14T09:17:15.511Z,2.20
2023-05-14T09:19:42.758Z,2.20
2023-05-14T09:22:10.376Z,2.60
2023-05-14T09:24:38.913Z,2.10
2023-05-14T09:27:06.520Z,2.30
2023-05-14T09:29:33.488Z,1.90
2023-05-14T09:32:02.378Z,2.60
2023-05-14T09:34:29.949Z,2.10
2023-05-14T09:36:57.708Z,2.00
2023-05-14T09:39:25.094Z,2.20
2023-05-14T09:41:52.116Z,1.80
2023-05-14T09:44:19.512Z,2.20
2023-05-14T09:46:46.723Z,2.10
2023-05-14T09:49:13.663Z,2.00
2023-05-14T09:51:40.687Z,2.10
2023-05-14T09:54:07.570Z,2.50
2023-05-14T09:56:34.619Z,2.00
2023-05-14T09:59:01.498Z,2.30
2023-05-14T10:01:31.612Z,2.30
2023-05-14T10:03:58.856Z,2.10
2023-05-14T10:06:28.109Z,2.90
2023-05-14T10:08:56.469Z,5.00
2023-05-14T10:11:26.779Z,2.00
2023-05-14T10:14:05.819Z,2.20
2023-05-14T10:16:34.197Z,1.80
2023-05-14T10:19:01.639Z,2.30
2023-05-14T10:21:28.731Z,2.30
2023-05-14T10:23:55.671Z,2.10
2023-05-14T10:26:23.972Z,2.00
2023-05-14T10:28:51.077Z,2.50
2023-05-14T10:31:18.044Z,1.90
2023-05-14T10:33:50.324Z,2.90
2023-05-14T10:36:17.759Z,2.20
2023-05-14T10:38:44.701Z,2.40
2023-05-14T10:43:53.895Z,2.20
2023-05-14T10:46:21.068Z,2.80
2023-05-14T10:48:47.932Z,2.70
2023-05-14T10:51:15.118Z,2.50
2023-05-14T10:53:43.058Z,2.40
2023-05-14T10:56:10.888Z,2.40
2023-05-14T10:58:38.325Z,2.40
2023-05-14T11:01:08.955Z,2.20
2023-05-14T11:03:43.777Z,2.70
2023-05-14T11:06:11.288Z,2.40
2023-05-14T11:08:38.307Z,2.50
2023-05-14T11:11:05.718Z,2.90
2023-05-14T11:13:34.557Z,2.80
2023-05-14T11:16:08.728Z,3.90
2023-05-14T11:18:40.937Z,4.40
2023-05-14T11:21:07.865Z,3.50
2023-05-14T11:23:34.750Z,4.00
2023-05-14T11:26:01.798Z,3.60
2023-05-14T11:28:28.713Z,3.50
2023-05-14T11:30:55.644Z,3.60
2023-05-14T11:33:22.665Z,4.80
2023-05-14T11:35:49.776Z,5.10
2023-05-14T11:38:17.161Z,4.60
2023-05-14T11:40:52.203Z,3.70
2023-05-14T11:43:19.109Z,3.50
2023-05-14T11:45:52.763Z,4.20
2023-05-14T11:48:20.208Z,3.90
2023-05-14T11:50:51.116Z,3.60
2023-05-14T11:53:25.284Z,3.40
2023-05-14T11:55:52.709Z,3.50
2023-05-14T11:58:19.615Z,3.20
2023-05-14T12:00:46.864Z,3.40
2023-05-14T12:03:13.906Z,4.10
2023-05-14T12:05:40.980Z,7.10
2023-05-14T12:08:23.847Z,4.80
2023-05-14T12:10:51.003Z,4.30
2023-05-14T12:13:18.343Z,4.20
2023-05-14T12:15:47.151Z,4.00
2023-05-14T12:18:24.238Z,3.10
2023-05-14T12:20:52.301Z,3.40
2023-05-14T12:23:26.584Z,2.90
2023-05-14T12:25:53.513Z,4.70
2023-05-14T12:28:20.540Z,9.80
2023-05-14T12:30:47.553Z,4.70
2023-05-14T12:33:18.149Z,3.40
2023-05-14T12:35:45.007Z,7.50
2023-05-14T12:38:11.843Z,18.70
2023-05-14T12:40:38.736Z,15.30
2023-05-14T12:43:05.701Z,12.10
2023-05-14T12:45:32.550Z,4.90
2023-05-14T12:47:59.795Z,4.30
2023-05-14T12:50:26.994Z,4.20
2023-05-14T12:52:54.064Z,4.60
2023-05-14T12:55:21.465Z,9.80
2023-05-14T12:57:48.315Z,4.00
2023-05-14T13:00:15.387Z,2.80
2023-05-14T13:02:43.623Z,2.30
2023-05-14T13:05:11.668Z,2.80
2023-05-14T13:07:38.731Z,2.60
2023-05-14T13:10:06.090Z,3.40
2023-05-14T13:12:33.066Z,3.20
2023-05-14T13:15:00.067Z,5.80
2023-05-14T13:17:27.112Z,3.20
2023-05-14T13:19:54.117Z,2.50
2023-05-14T13:22:21.029Z,2.70
2023-05-14T13:24:47.888Z,2.60
2023-05-14T13:27:14.784Z,3.00
2023-05-14T13:29:41.710Z,2.10
2023-05-14T13:32:09.195Z,2.20
2023-05-14T13:34:36.489Z,2.60
2023-05-14T13:37:04.042Z,2.60
2023-05-14T13:39:31.065Z,2.20
2023-05-14T13:41:58.021Z,2.40
2023-05-14T13:44:25.119Z,2.50
2023-05-14T13:46:52.453Z,2.40
2023-05-14T13:49:19.454Z,2.30
2023-05-14T13:51:46.333Z,11.20
2023-05-14T13:54:13.294Z,3.00
2023-05-14T13:56:41.568Z,2.70
2023-05-14T13:59:08.449Z,2.80
2023-05-14T14:01:35.490Z,3.00
2023-05-14T14:04:02.552Z,3.10
2023-05-14T14:06:31.047Z,3.10
2023-05-14T14:08:57.934Z,3.50
2023-05-14T14:11:24.775Z,2.80
2023-05-14T14:13:51.670Z,2.50
2023-05-14T14:16:18.606Z,2.50
2023-05-14T14:18:45.614Z,2.50
2023-05-14T14:21:12.524Z,2.30
2023-05-14T14:23:39.410Z,2.50
2023-05-14T14:26:06.389Z,2.70
2023-05-14T14:28:33.286Z,2.90
2023-05-14T14:31:00.195Z,2.50
2023-05-14T14:33:27.472Z,2.60
2023-05-14T14:35:54.418Z,2.80
2023-05-14T14:38:21.369Z,3.20
2023-05-14T14:40:48.300Z,3.10
2023-05-14T14:43:15.119Z,3.10
2023-05-14T14:45:43.048Z,2.60
2023-05-14T14:48:23.073Z,2.60
2023-05-14T14:50:50.221Z,3.20
2023-05-14T14:53:17.115Z,3.20
2023-05-14T14:55:44.033Z,3.00
2023-05-14T14:58:10.973Z,3.10
2023-05-14T15:00:40.853Z,3.10
2023-05-14T15:03:09.319Z,4.20
2023-05-14T15:05:36.236Z,2.90
2023-05-14T15:08:03.293Z,3.00
2023-05-14T15:10:30.906Z,3.00
2023-05-14T15:12:58.184Z,2.90
2023-05-14T15:15:25.785Z,3.40
2023-05-14T15:17:52.849Z,2.90
2023-05-14T15:20:19.780Z,3.30
2023-05-14T15:22:46.824Z,3.30
2023-05-14T15:25:13.660Z,2.70
2023-05-14T15:27:40.599Z,3.10
2023-05-14T15:30:07.875Z,3.10
2023-05-14T15:32:34.818Z,3.50
2023-05-14T15:35:01.747Z,3.50
2023-05-14T15:37:28.652Z,3.80
2023-05-14T15:39:55.709Z,3.40
2023-05-14T15:42:22.687Z,3.90
2023-05-14T15:44:49.549Z,4.00
2023-05-14T15:47:16.409Z,3.20
2023-05-14T15:49:43.284Z,4.10
2023-05-14T15:52:10.151Z,4.00
2023-05-14T15:54:37.131Z,4.00
2023-05-14T15:57:04.063Z,4.00
2023-05-14T15:59:30.955Z,3.70
2023-05-14T16:01:57.853Z,3.70
2023-05-14T16:04:25.332Z,4.10
2023-05-14T16:06:52.260Z,4.60
2023-05-14T16:09:19.087Z,5.90
2023-05-14T16:11:45.994Z,6.70
2023-05-14T16:14:12.863Z,7.40
2023-05-14T16:16:39.762Z,6.00
2023-05-14T16:19:06.792Z,6.00
2023-05-14T16:21:34.432Z,8.00
2023-05-14T16:24:01.454Z,8.90
2023-05-14T16:26:28.440Z,8.20
2023-05-14T16:28:55.434Z,7.90
2023-05-14T16:31:22.418Z,7.30
2023-05-14T16:33:49.336Z,8.20
2023-05-14T16:36:16.869Z,8.50
2023-05-14T16:39:05.201Z,7.30
2023-05-14T16:41:31.295Z,6.30
2023-05-14T16:43:58.129Z,7.90
2023-05-14T16:46:25.032Z,6.60
2023-05-14T16:48:52.030Z,6.40
2023-05-14T16:51:18.888Z,5.80
2023-05-14T16:53:46.167Z,6.60
2023-05-14T16:56:13.163Z,6.00
2023-05-14T16:58:40.034Z,5.50
2023-05-14T17:01:09.462Z,6.00
2023-05-14T17:03:36.929Z,5.00
2023-05-14T17:06:04.780Z,5.90
2023-05-14T17:08:33.756Z,6.60
2023-05-14T17:11:00.749Z,7.00
2023-05-14T17:13:27.551Z,7.20
2023-05-14T17:15:54.619Z,6.40
2023-05-14T17:18:21.618Z,6.90
2023-05-14T17:20:48.453Z,6.80
2023-05-14T17:23:15.353Z,8.10
2023-05-14T17:25:42.636Z,7.40
2023-05-14T17:28:09.479Z,7.40
2023-05-14T17:30:36.486Z,7.90
2023-05-14T17:33:03.626Z,8.40
2023-05-14T17:35:30.656Z,8.00
2023-05-14T17:37:59.409Z,8.50
2023-05-14T17:40:27.497Z,6.70
2023-05-14T17:42:54.540Z,6.00
2023-05-14T17:45:21.590Z,6.40
2023-05-14T17:47:49.309Z,5.70
2023-05-14T17:50:16.234Z,5.30
2023-05-14T17:52:44.316Z,4.30
2023-05-14T17:55:11.281Z,5.00
2023-05-14T17:57:38.174Z,4.50
2023-05-14T18:00:05.350Z,5.10
2023-05-14T18:02:37.809Z,10.50
2023-05-14T18:05:05.084Z,21.00
2023-05-14T18:07:32.012Z,23.60
2023-05-14T18:09:58.963Z,18.20
2023-05-14T18:12:26.759Z,18.50
2023-05-14T18:14:53.872Z,16.10
2023-05-14T18:17:20.797Z,14.40
2023-05-14T18:19:47.650Z,11.50
2023-05-14T18:22:15.619Z,8.00
2023-05-14T18:24:44.363Z,6.40
2023-05-14T18:27:11.305Z,6.30
2023-05-14T18:29:38.251Z,5.60
2023-05-14T18:32:05.435Z,4.80
2023-05-14T18:34:32.369Z,5.10
2023-05-14T18:36:59.291Z,5.30
2023-05-14T18:39:26.222Z,4.20
2023-05-14T18:41:53.137Z,4.30
2023-05-14T18:44:20.300Z,4.50
2023-05-14T18:46:47.439Z,4.30
2023-05-14T18:49:14.409Z,4.30
2023-05-14T18:51:41.262Z,4.40
2023-05-14T18:54:08.190Z,4.30
2023-05-14T18:56:35.865Z,4.60
2023-05-14T18:59:02.798Z,4.70
2023-05-14T19:01:29.905Z,4.30
2023-05-14T19:03:57.122Z,4.50
2023-05-14T19:06:24.115Z,4.30
2023-05-14T19:08:51.613Z,4.70
2023-05-14T19:11:18.492Z,4.80
2023-05-14T19:13:46.882Z,5.00
2023-05-14T19:16:13.905Z,5.10
2023-05-14T19:18:40.846Z,6.00
2023-05-14T19:21:08.205Z,5.60
2023-05-14T19:23:35.148Z,4.80
2023-05-14T19:26:02.000Z,5.00
2023-05-14T19:28:28.864Z,4.70
2023-05-14T19:30:57.395Z,5.30
2023-05-14T19:33:24.425Z,4.90
2023-05-14T19:35:51.571Z,4.50
2023-05-14T19:38:19.842Z,4.90
2023-05-14T19:40:46.700Z,4.60
2023-05-14T19:43:13.712Z,5.10
2023-05-14T19:45:42.846Z,5.00
2023-05-14T19:48:09.852Z,5.50
2023-05-14T19:50:39.643Z,5.10
2023-05-14T19:53:06.601Z,4.90
2023-05-14T19:55:33.489Z,5.80
2023-05-14T19:58:00.300Z,5.70
2023-05-14T20:00:27.501Z,5.30
2023-05-14T20:02:54.778Z,5.50
2023-05-14T20:05:21.811Z,5.60
2023-05-14T20:07:49.071Z,6.80
2023-05-14T20:10:16.019Z,6.00
2023-05-14T20:12:42.872Z,6.80
2023-05-14T20:15:10.077Z,6.80
2023-05-14T20:17:37.810Z,8.80
2023-05-14T20:20:05.110Z,7.80
2023-05-14T20:22:32.058Z,7.30
2023-05-14T20:24:58.921Z,7.00
2023-05-14T20:27:25.794Z,7.00
2023-05-14T20:29:54.232Z,7.50
2023-05-14T20:32:25.090Z,7.30
2023-05-14T20:34:52.096Z,6.90
2023-05-14T20:37:20.088Z,6.50
2023-05-14T20:39:47.061Z,6.80
2023-05-14T20:42:14.016Z,6.30
2023-05-14T20:44:40.886Z,7.00
2023-05-14T20:47:07.761Z,6.70
2023-05-14T20:49:34.582Z,7.50
2023-05-14T20:52:01.720Z,7.60
2023-05-14T20:54:28.568Z,7.80
2023-05-14T20:56:55.393Z,6.50
2023-05-14T20:59:22.291Z,7.10
2023-05-14T21:01:49.139Z,7.10
2023-05-14T21:04:16.378Z,7.20
2023-05-14T21:06:43.422Z,7.70
2023-05-14T21:09:10.970Z,7.50
2023-05-14T21:11:37.850Z,7.30
2023-05-14T21:14:04.916Z,7.80
2023-05-14T21:16:31.770Z,7.20
2023-05-14T21:18:58.753Z,7.40
2023-05-14T21:21:26.180Z,7.20
2023-05-14T21:23:53.024Z,7.80
2023-05-14T21:26:21.694Z,7.80
2023-05-14T21:28:48.835Z,7.10
2023-05-14T21:31:15.707Z,7.60
2023-05-14T21:33:42.579Z,7.20
2023-05-14T21:36:09.635Z,7.70
2023-05-14T21:38:36.542Z,8.10
2023-05-14T21:41:03.426Z,7.80
2023-05-14T21:43:30.378Z,7.50
2023-05-14T21:45:57.293Z,7.40
2023-05-14T21:48:24.206Z,7.90
2023-05-14T21:50:51.203Z,8.30
2023-05-14T21:53:18.111Z,8.20
2023-05-14T21:55:45.028Z,7.90
2023-05-14T21:58:12.013Z,8.50
2023-05-14T22:00:38.927Z,8.80
2023-05-14T22:03:05.946Z,8.90
2023-05-14T22:05:33.011Z,9.20
2023-05-14T22:07:59.853Z,8.90
2023-05-14T22:10:26.679Z,8.30
2023-05-14T22:12:53.580Z,9.60
2023-05-14T22:15:20.503Z,10.00
2023-05-14T22:17:47.648Z,9.50
2023-05-14T22:20:14.578Z,8.70
2023-05-14T22:22:41.476Z,9.60
2023-05-14T22:25:08.433Z,9.20
2023-05-14T22:27:35.376Z,9.50
2023-05-14T22:30:02.175Z,10.20
2023-05-14T22:32:29.131Z,10.50
2023-05-14T22:34:56.128Z,11.40
2023-05-14T22:37:22.925Z,11.70
2023-05-14T22:39:49.791Z,10.20
2023-05-14T22:42:16.693Z,8.80
2023-05-14T22:44:43.532Z,8.30
2023-05-14T22:47:10.754Z,8.00
2023-05-14T22:49:37.757Z,8.30
2023-05-14T22:52:04.775Z,8.30
2023-05-14T22:54:31.598Z,8.30
2023-05-14T22:56:58.531Z,8.40
2023-05-14T23:01:42.585Z,8.80
2023-05-14T23:04:09.594Z,8.20
2023-05-14T23:06:36.489Z,8.40
2023-05-14T23:09:03.472Z,7.90
2023-05-14T23:11:30.456Z,7.90
2023-05-14T23:13:57.263Z,8.10
2023-05-14T23:16:24.203Z,8.40
2023-05-14T23:18:51.339Z,8.20
2023-05-14T23:21:18.492Z,8.50
2023-05-14T23:23:45.631Z,9.30
2023-05-14T23:26:12.516Z,8.70
2023-05-14T23:28:39.374Z,9.60
2023-05-14T23:31:06.227Z,11.60
2023-05-14T23:33:33.286Z,11.30
2023-05-14T23:36:00.098Z,12.70
2023-05-14T23:38:27.112Z,12.30
2023-05-14T23:40:54.009Z,11.90
2023-05-14T23:43:20.887Z,11.20
2023-05-14T23:45:47.740Z,11.30
2023-05-14T23:48:14.733Z,11.70
2023-05-14T23:50:41.673Z,13.40
2023-05-14T23:53:08.565Z,14.90
2023-05-14T23:55:36.102Z,15.30
2023-05-14T23:58:03.069Z,15.80
